createdAt,value
2018-11-28T00:01:28.771Z,51.91
2018-11-28T00:03:56.463Z,51.88
2018-11-28T00:06:24.126Z,51.54
2018-11-28T00:08:51.783Z,51.90
2018-11-28T00:11:19.470Z,51.23
2018-11-28T00:13:47.094Z,51.90
2018-11-28T00:16:14.754Z,51.30
2018-11-28T00:18:42.407Z,51.68
2018-11-28T00:21:10.060Z,51.95
2018-11-28T00:23:37.694Z,51.23
2018-11-28T00:26:05.344Z,51.66
2018-11-28T00:28:32.999Z,52.25
2018-11-28T00:31:00.690Z,51.89
2018-11-28T00:33:28.344Z,52.14
2018-11-28T00:35:56.012Z,52.23
2018-11-28T00:38:23.677Z,51.40
2018-11-28T00:40:51.335Z,51.85
2018-11-28T00:43:19.014Z,52.04
2018-11-28T00:45:46.695Z,52.20
2018-11-28T00:48:14.355Z,51.65
2018-11-28T00:50:42.010Z,51.66
2018-11-28T00:53:09.656Z,51.84
2018-11-28T00:55:37.322Z,51.31
2018-11-28T00:58:04.958Z,51.41
2018-11-28T01:00:32.603Z,51.44
2018-11-28T01:03:00.256Z,52.16
2018-11-28T01:05:27.931Z,52.09
2018-11-28T01:07:55.976Z,51.76
2018-11-28T01:10:24.026Z,52.05
2018-11-28T01:12:52.148Z,52.00
2018-11-28T01:15:20.284Z,51.90
2018-11-28T01:17:47.998Z,51.33
2018-11-28T01:20:16.327Z,51.78
2018-11-28T01:22:44.035Z,51.97
2018-11-28T01:25:12.168Z,51.65
2018-11-28T01:27:39.840Z,51.99
2018-11-28T01:30:11.211Z,51.47
2018-11-28T01:32:38.852Z,51.52
2018-11-28T01:35:07.351Z,51.66
2018-11-28T01:37:35.004Z,51.43
2018-11-28T01:40:02.851Z,52.08
2018-11-28T01:42:30.516Z,51.29
2018-11-28T01:44:58.161Z,51.85
2018-11-28T01:47:25.821Z,52.20
2018-11-28T01:49:53.510Z,51.28
2018-11-28T01:52:21.179Z,51.28
2018-11-28T01:54:48.832Z,51.97
2018-11-28T01:57:16.540Z,51.08
2018-11-28T01:59:45.268Z,51.89
2018-11-28T02:02:12.920Z,51.50
2018-11-28T02:04:40.583Z,51.77
2018-11-28T02:07:08.264Z,51.30
2018-11-28T02:09:36.084Z,51.48
2018-11-28T02:12:03.730Z,51.19
2018-11-28T02:14:31.367Z,52.04
2018-11-28T02:16:59.022Z,52.29
2018-11-28T02:19:26.713Z,51.17
2018-11-28T02:21:54.363Z,51.96
2018-11-28T02:24:22.047Z,51.38
2018-11-28T02:26:49.721Z,51.92
2018-11-28T02:29:17.359Z,52.08
2018-11-28T02:31:45.023Z,51.21
2018-11-28T02:34:12.671Z,52.10
2018-11-28T02:36:40.352Z,51.60
2018-11-28T02:39:08.712Z,51.36
2018-11-28T02:41:36.357Z,51.06
2018-11-28T02:44:04.261Z,51.77
2018-11-28T02:46:31.950Z,51.72
2018-11-28T02:48:59.602Z,51.49
2018-11-28T02:51:27.268Z,51.36
2018-11-28T02:53:54.933Z,52.24
2018-11-28T02:56:22.580Z,52.21
2018-11-28T02:58:50.258Z,51.32
2018-11-28T03:01:17.909Z,51.69
2018-11-28T03:03:45.551Z,51.69
2018-11-28T03:06:13.216Z,52.01
2018-11-28T03:08:40.859Z,51.96
2018-11-28T03:11:08.519Z,52.29
2018-11-28T03:13:36.367Z,51.88
2018-11-28T03:16:10.472Z,51.70
2018-11-28T03:18:38.524Z,52.29
2018-11-28T03:21:06.432Z,52.11
2018-11-28T03:23:34.108Z,52.22
2018-11-28T03:26:01.774Z,51.40
2018-11-28T03:28:29.423Z,51.99
2018-11-28T03:30:57.043Z,51.58
2018-11-28T03:33:24.729Z,51.50
2018-11-28T03:35:52.360Z,51.35
2018-11-28T03:38:19.995Z,51.37
2018-11-28T03:40:47.716Z,52.15
2018-11-28T03:43:15.365Z,51.81
2018-11-28T03:45:43.042Z,51.26
2018-11-28T03:48:10.671Z,51.89
2018-11-28T03:50:38.347Z,51.99
2018-11-28T03:53:06.238Z,51.27
2018-11-28T03:55:33.919Z,51.28
2018-11-28T03:58:01.617Z,51.13
2018-11-28T04:00:29.252Z,52.10
2018-11-28T04:02:56.882Z,51.75
2018-11-28T04:05:24.499Z,51.20
2018-11-28T04:07:52.118Z,51.94
2018-11-28T04:10:19.760Z,51.43
2018-11-28T04:12:47.387Z,51.49
2018-11-28T04:15:18.687Z,51.29
2018-11-28T04:17:46.325Z,51.38
2018-11-28T04:20:14.506Z,52.08
2018-11-28T04:22:42.128Z,51.27
2018-11-28T04:25:10.184Z,51.60
2018-11-28T04:27:37.824Z,51.49
2018-11-28T04:30:07.630Z,51.20
2018-11-28T04:32:35.278Z,51.61
2018-11-28T04:35:02.953Z,51.55
2018-11-28T04:37:30.582Z,51.58
2018-11-28T04:39:58.213Z,51.10
2018-11-28T04:42:25.855Z,51.28
2018-11-28T04:44:53.496Z,51.20
2018-11-28T04:47:21.145Z,51.60
2018-11-28T04:49:48.780Z,51.21
2018-11-28T04:52:16.411Z,51.89
2018-11-28T04:54:44.048Z,51.41
2018-11-28T04:57:11.708Z,51.40
2018-11-28T04:59:39.340Z,51.23
2018-11-28T05:02:06.970Z,51.82
2018-11-28T05:04:34.632Z,51.66
2018-11-28T05:07:32.823Z,51.14
2018-11-28T05:10:00.474Z,51.08
2018-11-28T05:12:28.111Z,51.20
2018-11-28T05:14:55.751Z,51.65
2018-11-28T05:17:23.388Z,51.27
2018-11-28T05:19:51.029Z,51.86
2018-11-28T05:22:18.680Z,51.10
2018-11-28T05:24:46.319Z,51.99
2018-11-28T05:27:13.948Z,51.07
2018-11-28T05:29:41.595Z,52.00
2018-11-28T05:32:09.264Z,51.24
2018-11-28T05:34:36.875Z,51.52
2018-11-28T05:37:04.620Z,51.59
2018-11-28T05:39:32.249Z,51.57
2018-11-28T05:41:59.871Z,51.73
2018-11-28T05:44:27.511Z,51.49
2018-11-28T05:46:55.252Z,51.51
2018-11-28T05:49:22.899Z,51.23
2018-11-28T05:51:50.532Z,51.51
2018-11-28T05:54:18.172Z,51.48
2018-11-28T05:56:45.803Z,51.53
2018-11-28T05:59:13.422Z,51.77
2018-11-28T06:01:41.047Z,51.25
2018-11-28T06:04:08.736Z,51.68
2018-11-28T06:06:36.392Z,51.13
2018-11-28T06:09:05.007Z,51.35
2018-11-28T06:11:32.622Z,51.04
2018-11-28T06:14:00.262Z,51.39
2018-11-28T06:16:29.011Z,51.48
2018-11-28T06:18:56.638Z,51.22
2018-11-28T06:21:24.283Z,51.83
2018-11-28T06:23:51.961Z,51.39
2018-11-28T06:26:19.687Z,51.32
2018-11-28T06:28:47.355Z,51.42
2018-11-28T06:31:15.018Z,51.19
2018-11-28T06:33:42.640Z,51.20
2018-11-28T06:36:10.295Z,51.14
2018-11-28T06:38:37.930Z,51.05
2018-11-28T06:41:05.855Z,51.24
2018-11-28T06:43:33.473Z,51.11
2018-11-28T06:46:01.092Z,51.21
2018-11-28T06:48:28.715Z,51.87
2018-11-28T06:50:56.330Z,51.72
2018-11-28T06:53:23.943Z,51.04
2018-11-28T06:55:51.580Z,51.12
2018-11-28T06:58:19.231Z,51.49
2018-11-28T07:00:46.850Z,51.17
2018-11-28T07:03:14.512Z,51.68
2018-11-28T07:05:42.148Z,50.84
2018-11-28T07:08:09.775Z,51.36
2018-11-28T07:10:37.399Z,51.03
2018-11-28T07:13:05.267Z,51.26
2018-11-28T07:15:32.902Z,51.85
2018-11-28T07:18:06.148Z,51.67
2018-11-28T07:20:33.784Z,51.77
2018-11-28T07:23:01.408Z,50.82
2018-11-28T07:25:29.108Z,50.96
2018-11-28T07:27:56.747Z,51.21
2018-11-28T07:30:24.375Z,51.66
2018-11-28T07:32:54.920Z,50.96
2018-11-28T07:35:22.539Z,50.89
2018-11-28T07:37:50.217Z,50.88
2018-11-28T07:40:18.572Z,51.39
2018-11-28T07:42:47.211Z,50.97
2018-11-28T07:45:14.847Z,50.90
2018-11-28T07:47:42.478Z,50.92
2018-11-28T07:50:10.358Z,51.13
2018-11-28T07:52:38.216Z,50.95
2018-11-28T07:55:06.893Z,51.54
2018-11-28T07:57:34.535Z,51.23
2018-11-28T08:00:02.279Z,50.91
2018-11-28T08:02:29.849Z,51.58
2018-11-28T08:04:57.475Z,51.55
2018-11-28T08:07:25.116Z,51.36
2018-11-28T08:09:52.756Z,50.76
2018-11-28T08:12:20.407Z,50.73
2018-11-28T08:14:48.065Z,51.38
2018-11-28T08:17:15.704Z,50.65
2018-11-28T08:19:43.338Z,50.68
2018-11-28T08:22:10.967Z,50.67
2018-11-28T08:24:38.664Z,51.05
2018-11-28T08:27:06.280Z,50.79
2018-11-28T08:29:33.895Z,50.75
2018-11-28T08:32:01.614Z,50.84
2018-11-28T08:34:29.237Z,51.31
2018-11-28T08:36:56.868Z,51.32
2018-11-28T08:39:24.523Z,51.20
2018-11-28T08:41:52.165Z,50.69
2018-11-28T08:44:19.828Z,50.61
2018-11-28T08:46:47.504Z,51.37
2018-11-28T08:49:15.123Z,50.90
2018-11-28T08:51:42.749Z,50.74
2018-11-28T08:54:10.385Z,51.42
2018-11-28T08:56:38.003Z,51.13
2018-11-28T08:59:06.059Z,51.15
2018-11-28T09:01:33.735Z,51.25
2018-11-28T09:04:01.386Z,50.73
2018-11-28T09:06:29.015Z,50.68
2018-11-28T09:08:56.659Z,51.24
2018-11-28T09:11:24.295Z,51.35
2018-11-28T09:13:51.940Z,50.51
2018-11-28T09:16:19.645Z,50.72
2018-11-28T09:18:47.332Z,50.71
2018-11-28T09:21:14.971Z,50.67
2018-11-28T09:23:42.615Z,50.30
2018-11-28T09:26:14.445Z,50.96
2018-11-28T09:28:42.100Z,50.80
2018-11-28T09:31:09.739Z,50.52
2018-11-28T09:33:37.384Z,50.97
2018-11-28T09:36:05.123Z,50.31
2018-11-28T09:38:32.829Z,50.78
2018-11-28T09:41:00.479Z,50.20
2018-11-28T09:43:29.175Z,49.95
2018-11-28T09:45:55.821Z,49.78
2018-11-28T09:48:23.484Z,50.39
2018-11-28T09:50:51.144Z,49.60
2018-11-28T09:53:18.783Z,49.84
2018-11-28T09:55:46.419Z,50.45
2018-11-28T09:58:14.068Z,49.96
2018-11-28T10:00:41.692Z,50.50
2018-11-28T10:03:09.325Z,50.31
2018-11-28T10:05:36.998Z,50.35
2018-11-28T10:08:04.635Z,50.83
2018-11-28T10:10:32.336Z,50.23
2018-11-28T10:12:59.978Z,50.36
2018-11-28T10:15:28.095Z,50.01
2018-11-28T10:17:55.735Z,50.55
2018-11-28T10:20:23.376Z,50.13
2018-11-28T10:22:51.560Z,49.70
2018-11-28T10:25:19.707Z,50.14
2018-11-28T10:27:48.011Z,49.95
2018-11-28T10:30:16.378Z,49.79
2018-11-28T10:32:44.030Z,49.86
2018-11-28T10:35:11.678Z,50.24
2018-11-28T10:37:39.349Z,49.86
2018-11-28T10:40:09.284Z,49.75
2018-11-28T10:42:36.933Z,49.91
2018-11-28T10:45:05.225Z,49.72
2018-11-28T10:47:32.893Z,50.26
2018-11-28T10:50:00.536Z,50.41
2018-11-28T10:52:28.172Z,50.00
2018-11-28T10:54:55.857Z,49.96
2018-11-28T10:57:23.492Z,50.04
2018-11-28T10:59:51.123Z,49.50
2018-11-28T11:02:23.984Z,50.33
2018-11-28T11:04:56.913Z,50.00
2018-11-28T11:07:29.768Z,49.70
2018-11-28T11:10:02.537Z,50.23
2018-11-28T11:12:35.571Z,49.26
2018-11-28T11:15:03.227Z,49.13
2018-11-28T11:17:30.889Z,49.18
2018-11-28T11:19:58.562Z,49.61
2018-11-28T11:22:26.221Z,49.22
2018-11-28T11:24:53.853Z,49.09
2018-11-28T11:27:21.482Z,49.03
2018-11-28T11:29:49.127Z,48.86
2018-11-28T11:32:16.860Z,49.09
2018-11-28T11:34:44.512Z,48.85
2018-11-28T11:37:12.139Z,49.77
2018-11-28T11:39:39.795Z,49.71
2018-11-28T11:42:07.470Z,49.38
2018-11-28T11:44:35.089Z,48.95
2018-11-28T11:47:02.724Z,48.94
2018-11-28T11:49:30.372Z,49.11
2018-11-28T11:51:58.032Z,49.34
2018-11-28T11:54:25.664Z,48.75
2018-11-28T11:56:53.288Z,49.37
2018-11-28T11:59:20.981Z,49.33
2018-11-28T12:01:54.563Z,49.37
2018-11-28T12:04:16.299Z,48.87
2018-11-28T12:06:43.977Z,48.63
2018-11-28T12:09:11.619Z,49.46
2018-11-28T12:11:39.281Z,49.06
2018-11-28T12:14:06.945Z,49.39
2018-11-28T12:16:34.696Z,48.49
2018-11-28T12:19:02.411Z,49.17
2018-11-28T12:21:30.104Z,49.29
2018-11-28T12:23:57.814Z,48.62
2018-11-28T12:26:25.588Z,48.71
2018-11-28T12:28:53.336Z,49.48
2018-11-28T12:31:21.279Z,49.02
2018-11-28T12:33:49.039Z,49.27
2018-11-28T12:36:16.845Z,49.53
2018-11-28T12:38:45.052Z,49.40
2018-11-28T12:41:13.212Z,49.48
2018-11-28T12:43:41.007Z,49.23
2018-11-28T12:46:08.737Z,49.43
2018-11-28T12:48:36.392Z,49.23
2018-11-28T12:51:04.028Z,48.66
2018-11-28T12:53:31.919Z,48.87
2018-11-28T12:55:59.692Z,49.63
2018-11-28T12:58:27.442Z,48.69
2018-11-28T13:00:55.299Z,49.02
2018-11-28T13:03:23.022Z,48.67
2018-11-28T13:05:50.814Z,48.75
2018-11-28T13:08:18.556Z,48.88
2018-11-28T13:10:46.276Z,48.93
2018-11-28T13:13:14.129Z,48.96
2018-11-28T13:15:41.830Z,48.97
2018-11-28T13:18:10.658Z,49.14
2018-11-28T13:20:38.788Z,48.97
2018-11-28T13:23:07.152Z,48.76
2018-11-28T13:25:34.823Z,48.93
2018-11-28T13:28:02.555Z,49.23
2018-11-28T13:30:30.330Z,48.93
2018-11-28T13:32:58.036Z,49.61
2018-11-28T13:35:26.240Z,49.19
2018-11-28T13:37:55.644Z,49.12
2018-11-28T13:40:23.632Z,48.96
2018-11-28T13:42:51.408Z,48.79
2018-11-28T13:45:20.636Z,49.65
2018-11-28T13:47:49.869Z,48.89
2018-11-28T13:50:17.579Z,49.08
2018-11-28T13:52:45.348Z,49.60
2018-11-28T13:55:39.785Z,49.31
2018-11-28T13:57:59.023Z,49.61
2018-11-28T14:00:27.167Z,49.71
2018-11-28T14:02:55.993Z,49.29
2018-11-28T14:05:23.735Z,49.26
2018-11-28T14:07:51.562Z,48.73
2018-11-28T14:10:19.187Z,48.98
2018-11-28T14:12:46.916Z,49.26
2018-11-28T14:15:15.238Z,49.27
2018-11-28T14:17:43.738Z,49.69
2018-11-28T14:20:11.604Z,49.12
2018-11-28T14:22:40.090Z,49.72
2018-11-28T14:25:08.553Z,49.71
2018-11-28T14:27:36.392Z,49.58
2018-11-28T14:30:04.748Z,49.08
2018-11-28T14:32:32.382Z,49.55
2018-11-28T14:35:00.218Z,49.16
2018-11-28T14:37:27.945Z,49.00
2018-11-28T14:39:55.699Z,49.26
2018-11-28T14:42:24.015Z,48.97
2018-11-28T14:44:51.737Z,49.55
2018-11-28T14:47:19.506Z,49.47
2018-11-28T14:49:47.374Z,49.14
2018-11-28T14:52:15.040Z,49.03
2018-11-28T14:54:42.678Z,48.94
2018-11-28T14:57:10.298Z,48.78
2018-11-28T14:59:40.437Z,48.75
2018-11-28T15:02:06.284Z,49.36
2018-11-28T15:04:33.945Z,48.79
2018-11-28T15:07:01.875Z,49.49
2018-11-28T15:09:35.769Z,49.44
2018-11-28T15:12:04.107Z,49.25
2018-11-28T15:14:31.736Z,49.13
2018-11-28T15:16:59.381Z,49.00
2018-11-28T15:19:27.039Z,48.74
2018-11-28T15:21:54.764Z,48.76
2018-11-28T15:24:22.529Z,48.81
2018-11-28T15:26:50.363Z,48.89
2018-11-28T15:29:18.074Z,48.67
2018-11-28T15:31:45.953Z,48.64
2018-11-28T15:34:13.759Z,49.41
2018-11-28T15:36:41.480Z,49.32
2018-11-28T15:39:09.468Z,49.24
2018-11-28T15:41:37.703Z,49.05
2018-11-28T15:44:05.419Z,49.36
2018-11-28T15:46:33.241Z,48.99
2018-11-28T15:49:01.079Z,48.80
2018-11-28T15:51:28.706Z,49.11
2018-11-28T15:53:56.403Z,49.21
2018-11-28T15:56:24.056Z,48.81
2018-11-28T15:58:51.726Z,48.72
2018-11-28T16:01:19.392Z,49.23
2018-11-28T16:03:47.027Z,48.57
2018-11-28T16:06:14.716Z,48.85
2018-11-28T16:08:42.344Z,49.51
2018-11-28T16:11:11.102Z,48.96
2018-11-28T16:13:38.792Z,49.26
2018-11-28T16:16:06.790Z,48.97
2018-11-28T16:18:34.424Z,48.75
2018-11-28T16:21:02.106Z,49.11
2018-11-28T16:23:29.756Z,49.40
2018-11-28T16:25:57.406Z,48.70
2018-11-28T16:28:25.065Z,48.84
2018-11-28T16:30:52.759Z,48.75
2018-11-28T16:33:20.557Z,48.60
2018-11-28T16:35:48.202Z,48.88
2018-11-28T16:38:15.894Z,49.05
2018-11-28T16:40:43.546Z,48.90
2018-11-28T16:43:11.193Z,49.32
2018-11-28T16:45:38.820Z,49.43
2018-11-28T16:48:06.507Z,49.16
2018-11-28T16:50:34.139Z,48.82
2018-11-28T16:53:01.771Z,49.62
2018-11-28T16:55:29.422Z,49.21
2018-11-28T16:57:57.055Z,49.00
2018-11-28T17:00:25.530Z,48.70
2018-11-28T17:02:53.619Z,49.54
2018-11-28T17:05:21.795Z,49.54
2018-11-28T17:07:49.514Z,48.90
2018-11-28T17:10:19.573Z,48.93
2018-11-28T17:12:47.730Z,49.43
2018-11-28T17:15:16.755Z,48.86
2018-11-28T17:17:44.509Z,49.26
2018-11-28T17:20:12.663Z,49.09
2018-11-28T17:22:40.323Z,48.84
2018-11-28T17:25:10.163Z,49.65
2018-11-28T17:27:38.092Z,48.91
2018-11-28T17:30:06.697Z,48.76
2018-11-28T17:32:34.403Z,48.97
2018-11-28T17:35:02.047Z,49.21
2018-11-28T17:37:29.691Z,49.13
2018-11-28T17:39:57.311Z,49.60
2018-11-28T17:42:25.017Z,49.06
2018-11-28T17:44:52.824Z,49.70
2018-11-28T17:47:20.446Z,49.17
2018-11-28T17:49:48.078Z,49.66
2018-11-28T17:52:15.750Z,48.98
2018-11-28T17:54:43.454Z,49.17
2018-11-28T17:57:11.115Z,49.00
2018-11-28T17:59:38.747Z,49.33
2018-11-28T18:02:06.449Z,49.81
2018-11-28T18:04:34.072Z,49.82
2018-11-28T18:07:01.682Z,49.55
2018-11-28T18:09:29.319Z,48.99
2018-11-28T18:11:56.943Z,49.84
2018-11-28T18:14:24.568Z,49.76
2018-11-28T18:16:52.224Z,48.77
2018-11-28T18:19:19.867Z,49.34
2018-11-28T18:21:47.486Z,49.09
2018-11-28T18:24:15.117Z,48.66
2018-11-28T18:26:42.753Z,49.26
2018-11-28T18:29:10.519Z,48.82
2018-11-28T18:31:38.165Z,48.06
2018-11-28T18:34:05.810Z,47.88
2018-11-28T18:36:33.475Z,49.15
2018-11-28T18:39:01.138Z,48.98
2018-11-28T18:41:28.805Z,47.79
2018-11-28T18:43:56.445Z,47.57
2018-11-28T18:46:24.074Z,49.46
2018-11-28T18:48:51.787Z,48.84
2018-11-28T18:51:19.447Z,48.85
2018-11-28T18:53:49.511Z,48.65
2018-11-28T18:56:14.794Z,49.60
2018-11-28T18:58:42.430Z,49.45
2018-11-28T19:01:10.046Z,49.49
2018-11-28T19:03:37.666Z,49.22
2018-11-28T19:06:05.340Z,49.43
2018-11-28T19:08:33.019Z,49.60
2018-11-28T19:11:01.151Z,49.35
2018-11-28T19:13:28.322Z,49.53
2018-11-28T19:15:56.009Z,49.61
2018-11-28T19:18:23.665Z,49.55
2018-11-28T19:20:51.299Z,48.92
2018-11-28T19:23:18.927Z,49.56
2018-11-28T19:25:49.927Z,48.93
2018-11-28T19:28:14.222Z,49.04
2018-11-28T19:30:41.879Z,49.39
2018-11-28T19:33:12.142Z,49.18
2018-11-28T19:35:39.788Z,48.93
2018-11-28T19:38:09.116Z,49.34
2018-11-28T19:40:40.649Z,49.41
2018-11-28T19:43:08.288Z,48.68
2018-11-28T19:45:35.977Z,48.67
2018-11-28T19:48:03.608Z,49.02
2018-11-28T19:50:32.350Z,48.82
2018-11-28T19:52:59.994Z,49.23
2018-11-28T19:55:27.618Z,49.58
2018-11-28T19:57:55.351Z,49.22
2018-11-28T20:00:22.980Z,48.76
2018-11-28T20:02:50.643Z,49.74
2018-11-28T20:05:18.268Z,49.00
2018-11-28T20:07:46.597Z,49.09
2018-11-28T20:10:18.867Z,48.87
2018-11-28T20:12:46.543Z,48.99
2018-11-28T20:15:15.863Z,49.07
2018-11-28T20:17:43.493Z,49.68
2018-11-28T20:20:11.668Z,49.02
2018-11-28T20:22:39.298Z,49.39
2018-11-28T20:25:09.618Z,49.40
2018-11-28T20:27:37.238Z,49.41
2018-11-28T20:30:07.466Z,48.85
2018-11-28T20:32:35.104Z,49.32
2018-11-28T20:35:03.126Z,48.90
2018-11-28T20:37:30.512Z,48.85
2018-11-28T20:39:58.153Z,49.13
2018-11-28T20:42:25.835Z,48.94
2018-11-28T20:44:53.468Z,49.53
2018-11-28T20:47:21.097Z,49.02
2018-11-28T20:49:48.744Z,49.22
2018-11-28T20:52:16.393Z,48.85
2018-11-28T20:54:44.028Z,48.91
2018-11-28T20:57:17.180Z,49.12
2018-11-28T20:59:39.441Z,48.94
2018-11-28T21:02:07.040Z,49.17
2018-11-28T21:04:34.740Z,49.52
2018-11-28T21:07:02.375Z,49.01
2018-11-28T21:09:30.027Z,49.44
2018-11-28T21:11:57.646Z,49.71
2018-11-28T21:14:25.495Z,49.86
2018-11-28T21:16:53.112Z,49.82
2018-11-28T21:19:20.731Z,49.32
2018-11-28T21:21:48.391Z,49.54
2018-11-28T21:24:16.019Z,49.04
2018-11-28T21:26:43.684Z,49.02
2018-11-28T21:29:11.306Z,49.49
2018-11-28T21:31:38.935Z,49.30
2018-11-28T21:34:06.585Z,49.79
2018-11-28T21:36:34.199Z,49.04
2018-11-28T21:39:01.855Z,49.17
2018-11-28T21:41:29.491Z,48.97
2018-11-28T21:43:57.251Z,49.41
2018-11-28T21:46:24.924Z,49.16
2018-11-28T21:48:52.607Z,48.86
2018-11-28T21:51:20.226Z,48.97
2018-11-28T21:53:47.851Z,49.46
2018-11-28T21:56:15.467Z,49.68
2018-11-28T21:58:43.100Z,48.92
2018-11-28T22:01:10.733Z,49.61
2018-11-28T22:03:38.344Z,49.09
2018-11-28T22:06:06.077Z,49.76
2018-11-28T22:08:33.710Z,48.90
2018-11-28T22:11:01.348Z,49.78
2018-11-28T22:13:28.984Z,49.86
2018-11-28T22:15:56.712Z,49.16
2018-11-28T22:18:24.335Z,49.35
2018-11-28T22:20:51.968Z,49.77
2018-11-28T22:23:19.600Z,49.39
2018-11-28T22:25:47.218Z,49.98
2018-11-28T22:28:14.852Z,49.99
2018-11-28T22:30:42.492Z,49.24
2018-11-28T22:33:10.117Z,48.99
2018-11-28T22:35:37.730Z,49.17
2018-11-28T22:38:05.679Z,49.62
2018-11-28T22:40:33.303Z,49.38
2018-11-28T22:43:00.935Z,49.76
2018-11-28T22:45:30.076Z,49.18
2018-11-28T22:47:57.686Z,49.27
2018-11-28T22:50:25.315Z,49.17
2018-11-28T22:52:52.974Z,49.08
2018-11-28T22:55:20.836Z,49.10
2018-11-28T22:57:48.458Z,49.59
2018-11-28T23:00:24.738Z,48.92
2018-11-28T23:02:53.981Z,48.96
2018-11-28T23:05:22.236Z,49.38
2018-11-28T23:07:49.868Z,49.44
2018-11-28T23:10:17.496Z,49.61
2018-11-28T23:12:45.143Z,49.56
2018-11-28T23:15:12.763Z,48.98
2018-11-28T23:17:40.384Z,49.60
2018-11-28T23:20:08.617Z,49.28
2018-11-28T23:22:36.253Z,49.96
2018-11-28T23:25:04.138Z,49.74
2018-11-28T23:27:31.780Z,48.99
2018-11-28T23:29:59.423Z,49.62
2018-11-28T23:32:27.072Z,48.83
2018-11-28T23:34:54.711Z,48.88
2018-11-28T23:37:22.325Z,49.35
2018-11-28T23:39:49.946Z,49.94
2018-11-28T23:42:17.567Z,49.31
2018-11-28T23:44:45.190Z,49.12
2018-11-28T23:47:12.819Z,49.17
2018-11-28T23:49:40.463Z,49.71
2018-11-28T23:52:08.124Z,49.37
2018-11-28T23:54:35.743Z,49.93
2018-11-28T23:57:03.456Z,49.16
2018-11-28T23:59:31.084Z,49.87
